Time;durP1;ratioP1;P1;durP2;ratioP2;P2;SDS_P1;SDS_P2;PMS_P1;PMS_P2;Temp;Humidity;BMP_temperature;BMP_pressure;BME280_temperature;BME280_humidity;BME280_pressure;Samples;Min_cycle;Max_cycle;Signal;HPM_P1;HPM_P2
2021/03/12 00:01:28;;;;;;;13.28;4.17;;;;;;;-9.83;53.61;101050.66;1701875;83;21242;-74
2021/03/12 00:03:56;;;;;;;11.53;4.28;;;;;;;-9.82;53.45;101054.16;1685301;82;21143;-80
2021/03/12 00:06:25;;;;;;;15.63;4.47;;;;;;;-9.85;53.56;101052.56;1674812;84;21206;-78
2021/03/12 00:08:54;;;;;;;12.03;4.33;;;;;;;-9.87;54.02;101051.82;1687700;82;21218;-77
2021/03/12 00:11:24;;;;;;;12.93;4.80;;;;;;;-9.92;54.18;101055.23;1692472;83;21174;-75
2021/03/12 00:13:52;;;;;;;11.80;4.30;;;;;;;-9.93;54.02;101056.64;1687978;82;21236;-77
2021/03/12 00:16:22;;;;;;;11.63;4.50;;;;;;;-9.94;54.14;101061.08;1743988;82;21114;-74
2021/03/12 00:18:50;;;;;;;12.80;4.35;;;;;;;-9.97;54.05;101059.98;1726370;82;21612;-75
2021/03/12 00:21:18;;;;;;;12.37;4.33;;;;;;;-10.02;54.29;101054.60;1691001;83;21176;-76
2021/03/12 00:23:46;;;;;;;14.65;5.00;;;;;;;-10.03;54.58;101058.19;1703153;82;21125;-74
2021/03/12 00:26:13;;;;;;;14.80;4.58;;;;;;;-10.02;55.11;101066.52;1707874;84;21171;-77
2021/03/12 00:28:41;;;;;;;15.55;4.80;;;;;;;-10.05;55.38;101061.41;1707853;84;21250;-75
2021/03/12 00:31:09;;;;;;;13.53;4.22;;;;;;;-10.06;55.22;101073.79;1705489;82;21163;-75
2021/03/12 00:33:37;;;;;;;;;;;;;;;-10.05;54.99;101062.73;1708802;84;21235;-74
2021/03/12 00:36:06;;;;;;;14.63;4.77;;;;;;;-10.06;54.80;101066.31;1651948;84;20259;-74
2021/03/12 00:38:34;;;;;;;12.47;4.23;;;;;;;-10.09;55.29;101070.01;1674109;84;21168;-74
2021/03/12 00:41:05;;;;;;;13.53;4.10;;;;;;;-10.11;55.08;101077.20;1704758;82;21239;-76
2021/03/12 00:43:37;;;;;;;12.10;4.00;;;;;;;-10.15;55.32;101073.56;1701800;84;21626;-76
2021/03/12 00:46:09;;;;;;;13.27;4.30;;;;;;;-10.17;55.33;101069.70;1725206;82;21094;-80
2021/03/12 00:48:38;;;;;;;13.37;4.20;;;;;;;-10.19;55.16;101070.25;1744539;82;21126;-72
2021/03/12 00:51:06;;;;;;;11.50;4.50;;;;;;;-10.21;55.39;101072.62;1684093;84;21172;-73
2021/03/12 00:53:41;;;;;;;9.80;4.00;;;;;;;-10.25;55.16;101059.22;1667173;84;21607;-72
2021/03/12 00:56:09;;;;;;;10.98;4.20;;;;;;;-10.27;54.92;101057.15;1705417;81;21215;-72
2021/03/12 00:58:38;;;;;;;11.50;3.80;;;;;;;-10.30;54.73;101050.72;1706635;82;21149;-74
2021/03/12 01:01:07;;;;;;;11.23;4.17;;;;;;;-10.33;54.67;101051.77;1667123;84;21177;-74
2021/03/12 01:03:37;;;;;;;10.60;4.43;;;;;;;-10.32;54.29;101041.56;1688958;84;21137;-73
2021/03/12 01:06:07;;;;;;;12.47;4.03;;;;;;;-10.35;54.30;101035.97;1694438;82;21744;-71
2021/03/12 01:08:40;;;;;;;11.27;4.40;;;;;;;-10.37;54.31;101043.63;1684259;84;21117;-73
2021/03/12 01:11:08;;;;;;;11.12;4.42;;;;;;;-10.40;54.39;101048.63;1675325;84;21117;-74
2021/03/12 01:13:37;;;;;;;12.80;4.27;;;;;;;-10.44;54.63;101043.17;1669567;82;21180;-72
2021/03/12 01:16:05;;;;;;;;;;;;;;;-10.50;54.39;101032.97;1645565;85;21179;-75
2021/03/12 01:18:33;;;;;;;12.30;4.40;;;;;;;-10.51;54.77;101024.67;1691854;82;20170;-79
2021/03/12 01:21:04;;;;;;;12.17;4.60;;;;;;;-10.50;55.07;101029.49;1670072;84;21591;-77
2021/03/12 01:23:32;;;;;;;13.23;4.57;;;;;;;-10.50;54.74;101021.56;1713126;82;21176;-78
2021/03/12 01:26:01;;;;;;;10.53;4.20;;;;;;;-10.57;54.31;101016.25;1700565;84;21176;-78
2021/03/12 01:28:31;;;;;;;13.73;4.67;;;;;;;-10.58;55.07;101017.22;1700052;82;21318;-76
2021/03/12 01:30:59;;;;;;;;;;;;;;;-10.58;54.91;101018.54;1673563;84;21149;-79
2021/03/12 01:33:35;;;;;;;15.40;5.40;;;;;;;-10.59;54.58;101028.27;1699415;83;20174;-78
2021/03/12 01:36:04;;;;;;;10.97;4.37;;;;;;;-10.60;54.54;101009.36;1698295;84;21172;-72
2021/03/12 01:38:34;;;;;;;13.13;5.27;;;;;;;-10.59;54.23;101009.75;1695346;82;21685;-74
2021/03/12 01:41:03;;;;;;;16.93;5.07;;;;;;;-10.63;53.92;101008.72;1700021;84;21259;-77
2021/03/12 01:43:34;;;;;;;15.40;5.57;;;;;;;-10.64;54.23;101005.69;1698597;82;21548;-83
2021/03/12 01:46:03;;;;;;;15.93;5.10;;;;;;;-10.63;54.87;101012.69;1702025;84;21157;-76
2021/03/12 01:48:32;;;;;;;18.37;5.70;;;;;;;-10.66;54.56;101016.37;1699826;82;21173;-74
2021/03/12 01:51:03;;;;;;;14.43;4.80;;;;;;;-10.74;54.44;101025.72;1701608;84;21133;-74
2021/03/12 01:53:34;;;;;;;14.53;4.67;;;;;;;-10.77;55.38;101019.29;1702002;83;21105;-74
2021/03/12 01:56:04;;;;;;;15.43;5.17;;;;;;;-10.79;55.07;101023.36;1681825;82;21600;-74
2021/03/12 01:58:34;;;;;;;10.00;4.00;;;;;;;-10.78;55.13;101022.43;1702653;84;21121;-74
2021/03/12 02:01:04;;;;;;;13.10;5.17;;;;;;;-10.76;55.36;101017.89;1701565;82;21136;-74
2021/03/12 02:03:37;;;;;;;16.47;4.60;;;;;;;-10.77;55.31;101017.50;1702435;84;21243;-74
2021/03/12 02:06:07;;;;;;;15.70;5.10;;;;;;;-10.78;55.11;101010.53;1701390;82;21240;-75
2021/03/12 02:08:36;;;;;;;12.97;4.50;;;;;;;-10.79;55.02;101009.28;1702731;84;21685;-74
2021/03/12 02:11:08;;;;;;;13.30;4.80;;;;;;;-10.82;54.86;101002.86;1697334;82;21251;-72
2021/03/12 02:13:55;;;;;;;11.13;4.37;;;;;;;-10.82;55.04;100995.78;1701592;84;21120;-74
2021/03/12 02:16:39;;;;;;;13.90;4.73;;;;;;;-10.87;54.74;100988.61;1685093;82;21271;-73
2021/03/12 02:19:44;;;;;;;10.87;4.40;;;;;;;-10.92;55.19;100987.19;1689448;83;21145;-73
2021/03/12 02:22:13;;;;;;;13.77;4.70;;;;;;;-10.96;55.46;100982.59;1678791;82;21628;-74
2021/03/12 02:24:55;;;;;;;14.63;5.03;;;;;;;-10.95;55.54;100988.73;1700440;84;21160;-74
2021/03/12 02:27:25;;;;;;;12.83;4.20;;;;;;;-10.94;55.48;100985.13;1698723;82;21121;-76
2021/03/12 02:29:56;;;;;;;13.97;4.33;;;;;;;-10.92;55.01;100987.19;1701564;84;21180;-76
2021/03/12 02:32:31;;;;;;;16.57;4.70;;;;;;;-10.94;54.85;100981.16;1703010;82;22214;-77
2021/03/12 02:35:04;;;;;;;12.37;4.47;;;;;;;-10.94;55.00;100983.80;1703092;84;21580;-71
2021/03/12 02:37:32;;;;;;;11.10;4.10;;;;;;;-10.96;54.66;100989.19;1684347;82;21278;-73
2021/03/12 02:40:00;;;;;;;13.43;4.63;;;;;;;-11.02;54.51;100989.09;1687384;84;21616;-73
2021/03/12 02:42:30;;;;;;;15.10;5.03;;;;;;;-11.05;55.15;100982.67;1721033;82;21161;-72
2021/03/12 02:45:00;;;;;;;19.90;4.92;;;;;;;-11.03;54.66;100976.81;1745192;82;21133;-72
2021/03/12 02:47:30;;;;;;;15.83;5.00;;;;;;;-11.04;55.15;100987.02;1727885;82;21160;-75
2021/03/12 02:50:01;;;;;;;15.17;4.80;;;;;;;-11.05;55.37;100987.95;1684404;84;21177;-73
2021/03/12 02:52:30;;;;;;;13.40;4.80;;;;;;;-11.06;55.48;100987.59;1682249;82;21145;-75
2021/03/12 02:55:00;;;;;;;10.13;4.30;;;;;;;-11.05;55.44;100995.02;1648472;86;21154;-75
2021/03/12 02:57:29;;;;;;;14.33;4.70;;;;;;;-11.04;55.10;100997.59;1675921;82;21203;-74
2021/03/12 02:59:59;;;;;;;12.27;4.17;;;;;;;-11.02;55.30;100998.34;1706048;84;21180;-75
2021/03/12 03:02:40;;;;;;;16.67;5.07;;;;;;;-11.01;54.89;100994.77;1658434;82;21183;-74
2021/03/12 03:05:11;;;;;;;14.33;5.13;;;;;;;-11.03;54.83;100996.63;1692963;84;21548;-75
2021/03/12 03:07:46;;;;;;;12.03;4.70;;;;;;;-11.03;54.73;100984.73;1703128;82;21153;-78
2021/03/12 03:10:16;;;;;;;13.03;4.80;;;;;;;-11.08;54.82;100976.23;1703165;84;21141;-74
2021/03/12 03:12:46;;;;;;;13.43;5.13;;;;;;;-11.12;54.73;100969.45;1703214;84;21176;-76
2021/03/12 03:15:14;;;;;;;12.60;4.50;;;;;;;-11.16;55.11;100971.92;1703291;82;21259;-72
2021/03/12 03:17:43;;;;;;;12.73;5.00;;;;;;;-11.17;55.28;100979.92;1706159;84;21259;-70
2021/03/12 03:20:14;;;;;;;12.40;4.80;;;;;;;-11.19;55.07;100971.25;1681769;82;21197;-72
2021/03/12 03:22:44;;;;;;;11.10;4.43;;;;;;;-11.20;55.30;100977.46;1674779;86;21145;-70
2021/03/12 03:25:13;;;;;;;11.00;4.50;;;;;;;-11.24;55.26;100978.14;1692688;82;21338;-72
2021/03/12 03:27:41;;;;;;;14.38;4.47;;;;;;;-11.29;55.14;100981.53;1701638;84;21145;-70
2021/03/12 03:30:12;;;;;;;13.20;4.87;;;;;;;-11.33;55.25;100987.10;1701165;82;21164;-71
2021/03/12 03:32:41;;;;;;;13.87;4.90;;;;;;;-11.32;55.48;100981.71;1701815;83;21181;-71
2021/03/12 03:35:11;;;;;;;11.65;4.80;;;;;;;-11.30;55.40;100985.57;1717304;82;21126;-70
2021/03/12 03:37:39;;;;;;;15.10;5.10;;;;;;;-11.32;55.42;100972.47;1714737;82;21612;-71
2021/03/12 03:40:08;;;;;;;15.13;4.80;;;;;;;-11.33;55.79;100983.14;1696124;82;21153;-71
2021/03/12 03:42:37;;;;;;;15.00;4.90;;;;;;;-11.34;55.57;100984.92;1702560;84;21193;-75
2021/03/12 03:45:08;;;;;;;14.17;4.67;;;;;;;-11.34;55.58;100995.95;1672181;82;21192;-76
2021/03/12 03:47:37;;;;;;;13.23;5.00;;;;;;;-11.36;55.67;100986.81;1655975;84;21278;-74
2021/03/12 03:50:06;;;;;;;15.33;5.37;;;;;;;-11.36;55.39;100982.85;1703149;84;21188;-74
2021/03/12 03:55:25;;;;;;;13.03;4.53;;;;;;;-11.29;55.89;100992.56;1809572;77;22166;-77
2021/03/12 03:57:57;;;;;;;19.37;5.03;;;;;;;-11.35;55.58;100992.45;1763334;78;21117;-73
2021/03/12 04:00:26;;;;;;;17.40;4.73;;;;;;;-11.39;55.66;100989.63;1737679;81;21613;-74
2021/03/12 04:02:57;;;;;;;12.73;4.80;;;;;;;-11.45;55.67;100993.95;1751184;80;21141;-73
2021/03/12 04:05:25;;;;;;;20.83;5.73;;;;;;;-11.51;55.54;100994.33;1741108;81;21169;-73
2021/03/12 04:07:55;;;;;;;13.50;5.07;;;;;;;-11.50;55.97;100989.41;1736039;81;21105;-73
2021/03/12 04:10:23;;;;;;;;;;;;;;;-11.47;56.01;101005.55;1762081;81;21556;-72
2021/03/12 04:12:52;;;;;;;16.33;5.03;;;;;;;-11.43;55.96;101005.27;1756257;80;20226;-72
2021/03/12 04:15:21;;;;;;;13.63;4.40;;;;;;;-11.37;55.50;101004.05;1761544;80;21180;-85
2021/03/12 04:17:49;;;;;;;15.63;4.93;;;;;;;-11.34;55.53;100995.95;1734231;80;21117;-80
2021/03/12 04:20:17;;;;;;;;;;;;;;;-11.34;55.38;100993.31;1763030;81;21568;-79
2021/03/12 04:22:46;;;;;;;14.63;5.20;;;;;;;-11.31;55.51;100991.34;1752726;80;20227;-80
2021/03/12 04:25:15;;;;;;;13.27;5.17;;;;;;;-11.29;55.45;100989.45;1677552;81;21117;-80
2021/03/12 04:27:43;;;;;;;18.27;5.00;;;;;;;-11.26;55.17;100988.42;1756831;80;21227;-79
2021/03/12 04:30:14;;;;;;;18.93;5.17;;;;;;;-11.25;55.11;100996.70;1711673;84;21262;-76
2021/03/12 04:32:42;;;;;;;14.47;5.30;;;;;;;-11.30;54.59;100983.78;1697204;82;21133;-77
2021/03/12 04:35:10;;;;;;;52.30;7.25;;;;;;;-11.37;54.50;100982.45;1718963;83;21276;-78
2021/03/12 04:37:38;;;;;;;;;;;;;;;-11.40;54.01;100978.67;1699481;84;21222;-79
2021/03/12 04:40:09;;;;;;;15.20;4.57;;;;;;;-11.41;54.59;100971.71;1692292;83;20164;-74
2021/03/12 04:42:41;;;;;;;15.87;4.50;;;;;;;-11.40;54.58;100966.79;1660960;83;21572;-76
2021/03/12 04:45:10;;;;;;;22.67;5.13;;;;;;;-11.38;54.45;100970.67;1716639;82;21153;-80
2021/03/12 04:47:40;;;;;;;16.53;5.07;;;;;;;-11.32;54.29;100972.47;1719783;83;21114;-84
2021/03/12 04:50:10;;;;;;;16.37;4.70;;;;;;;-11.30;54.29;100971.89;1704073;82;21611;-83
2021/03/12 04:52:39;;;;;;;16.13;5.03;;;;;;;-11.28;54.95;100972.64;1708262;83;21124;-80
2021/03/12 04:55:13;;;;;;;15.10;5.22;;;;;;;-11.21;54.62;100974.00;1683350;83;21227;-82
2021/03/12 04:57:42;;;;;;;12.30;4.53;;;;;;;-11.16;54.80;100981.17;1690507;84;21115;-78
2021/03/12 05:00:11;;;;;;;28.67;5.58;;;;;;;-11.10;54.59;100982.09;1696944;82;21170;-79
2021/03/12 05:02:41;;;;;;;13.27;4.80;;;;;;;-11.04;54.29;100978.23;1653307;85;21119;-82
2021/03/12 05:05:10;;;;;;;19.30;4.95;;;;;;;-10.98;53.96;100966.44;1699092;82;21169;-79
2021/03/12 05:07:39;;;;;;;24.40;4.77;;;;;;;-10.97;53.50;100966.80;1690235;83;21164;-74
2021/03/12 05:10:10;;;;;;;15.10;4.60;;;;;;;-10.95;53.37;100960.97;1696537;81;21135;-77
2021/03/12 05:12:38;;;;;;;17.00;4.30;;;;;;;-10.97;53.51;100961.05;1706934;84;21136;-78
2021/03/12 05:15:10;;;;;;;10.10;4.13;;;;;;;-10.93;53.25;100961.25;1673909;82;21168;-77
2021/03/12 05:17:38;;;;;;;13.27;5.37;;;;;;;-10.90;53.48;100966.83;1708896;83;21126;-77
2021/03/12 05:20:09;;;;;;;12.90;4.33;;;;;;;-10.88;53.63;100967.57;1714932;83;21140;-73
2021/03/12 05:22:37;;;;;;;18.83;3.83;;;;;;;-10.83;54.22;100952.27;1712719;82;21203;-75
2021/03/12 05:25:06;;;;;;;22.90;4.20;;;;;;;-10.76;53.14;100958.86;1711782;83;21149;-75
2021/03/12 05:27:34;;;;;;;15.63;4.20;;;;;;;-10.75;53.00;100944.21;1718101;82;21145;-77
2021/03/12 05:30:04;;;;;;;10.80;3.90;;;;;;;-10.70;52.73;100951.38;1720999;83;21129;-75
2021/03/12 05:32:32;;;;;;;15.90;4.47;;;;;;;-10.63;52.25;100959.80;1650171;85;21281;-73
2021/03/12 05:35:01;;;;;;;13.90;4.43;;;;;;;-10.57;51.77;100955.42;1704585;84;21180;-75
2021/03/12 05:37:30;;;;;;;15.57;4.37;;;;;;;-10.45;52.00;100965.23;1708563;83;21104;-76
2021/03/12 05:39:59;;;;;;;18.57;4.17;;;;;;;-10.34;51.25;100964.06;1714398;83;21114;-78
2021/03/12 05:42:28;;;;;;;32.93;5.53;;;;;;;-10.25;51.42;100968.77;1692356;82;21161;-76
2021/03/12 05:44:58;;;;;;;15.00;4.30;;;;;;;-10.15;50.56;100968.55;1707704;83;21730;-76
2021/03/12 05:47:28;;;;;;;10.80;3.90;;;;;;;-10.03;49.78;100959.77;1717045;82;21145;-76
2021/03/12 05:49:56;;;;;;;16.27;4.65;;;;;;;-9.94;49.29;100955.17;1694346;83;21616;-75
2021/03/12 05:52:24;;;;;;;15.93;4.12;;;;;;;-9.89;48.45;100956.22;1709065;82;21730;-76
2021/03/12 05:54:54;;;;;;;13.43;4.15;;;;;;;-9.85;48.06;100957.23;1686253;84;21223;-76
2021/03/12 05:57:23;;;;;;;14.50;3.27;;;;;;;-9.76;47.93;100953.95;1719677;81;21128;-75
2021/03/12 05:59:52;;;;;;;12.13;3.70;;;;;;;-9.69;46.79;100968.48;1691522;85;21156;-78
2021/03/12 06:02:21;;;;;;;16.80;3.93;;;;;;;-9.63;46.85;100960.59;1691840;85;21196;-79
2021/03/12 06:04:51;;;;;;;15.80;3.90;;;;;;;-9.61;45.93;100955.22;1704931;82;21303;-77
2021/03/12 06:07:20;;;;;;;16.67;3.33;;;;;;;-9.54;46.26;100951.19;1702946;84;21283;-81
2021/03/12 06:09:53;;;;;;;21.03;4.33;;;;;;;-9.49;46.25;100953.05;1712752;81;21134;-78
2021/03/12 06:12:22;;;;;;;12.20;3.43;;;;;;;-9.39;46.26;100948.82;1666530;85;21600;-77
2021/03/12 06:14:55;;;;;;;14.17;3.73;;;;;;;-9.32;45.82;100952.73;1695774;83;21135;-76
2021/03/12 06:17:47;;;;;;;26.63;7.63;;;;;;;-9.32;45.61;100956.25;1654741;84;21233;-80
2021/03/12 06:20:19;;;;;;;27.07;4.93;;;;;;;-9.20;46.56;100959.84;1671507;84;21165;-77
2021/03/12 06:22:52;;;;;;;16.67;4.47;;;;;;;-9.08;46.13;100949.23;1720164;83;21129;-77
2021/03/12 06:25:26;;;;;;;12.57;3.87;;;;;;;-9.01;45.04;100947.49;1701783;83;21205;-78
2021/03/12 06:28:15;;;;;;;43.67;5.83;;;;;;;-8.99;43.63;100938.47;1679150;85;21149;-77
2021/03/12 06:30:46;;;;;;;16.80;4.47;;;;;;;-9.00;43.97;100931.45;1683546;82;21597;-78
2021/03/12 06:33:33;;;;;;;17.93;4.33;;;;;;;-8.97;43.69;100927.27;1677538;84;21584;-76
2021/03/12 06:36:06;;;;;;;13.77;4.27;;;;;;;-8.95;42.30;100925.35;1660980;83;21158;-76
2021/03/12 06:38:38;;;;;;;15.17;3.60;;;;;;;-8.92;43.26;100920.31;1713645;82;21160;-76
2021/03/12 06:41:13;;;;;;;16.00;3.97;;;;;;;-8.89;43.40;100920.95;1715231;82;21129;-75
2021/03/12 06:43:43;;;;;;;30.47;4.87;;;;;;;-8.84;43.42;100934.73;1634517;85;21653;-82
2021/03/12 06:46:13;;;;;;;17.17;4.10;;;;;;;-8.76;43.58;100943.48;1681233;82;21261;-79
2021/03/12 06:48:47;;;;;;;12.97;4.03;;;;;;;-8.70;43.58;100943.88;1722696;82;21132;-75
2021/03/12 06:51:20;;;;;;;13.17;4.37;;;;;;;-8.65;44.10;100951.02;1673650;82;21160;-77
2021/03/12 06:53:51;;;;;;;52.73;6.30;;;;;;;-8.58;43.55;100946.14;1725107;82;21168;-76
2021/03/12 06:56:29;;;;;;;19.67;4.07;;;;;;;-8.52;44.09;100947.02;1683225;83;21136;-78
2021/03/12 06:59:03;;;;;;;11.43;3.80;;;;;;;-8.45;43.50;100949.62;1687534;83;21560;-80
2021/03/12 07:01:33;;;;;;;15.97;4.23;;;;;;;-8.42;43.09;100963.97;1699668;82;21287;-78
2021/03/12 07:04:14;;;;;;;20.67;4.50;;;;;;;-8.39;42.19;100961.09;1709645;84;21707;-76
2021/03/12 07:06:49;;;;;;;16.20;4.53;;;;;;;-8.38;42.56;100969.44;1674603;83;21157;-75
2021/03/12 07:09:19;;;;;;;16.10;4.27;;;;;;;-8.34;42.89;100981.99;1685961;84;21224;-78
2021/03/12 07:11:54;;;;;;;15.87;4.63;;;;;;;-8.25;42.87;100991.47;1658630;82;21115;-76
2021/03/12 07:14:28;;;;;;;14.13;4.60;;;;;;;-8.20;42.18;101005.73;1666804;85;21632;-78
2021/03/12 07:17:00;;;;;;;21.83;5.60;;;;;;;-8.15;42.32;101010.22;1684561;82;21304;-78
2021/03/12 07:19:30;;;;;;;15.00;4.50;;;;;;;-8.08;41.89;101010.14;1679089;84;21585;-75
2021/03/12 07:21:59;;;;;;;22.60;5.30;;;;;;;-8.05;40.73;101008.12;1687849;82;21587;-77
2021/03/12 07:24:30;;;;;;;16.87;4.87;;;;;;;-8.05;40.59;101010.78;1707885;83;21109;-76
2021/03/12 07:26:58;;;;;;;17.20;4.60;;;;;;;-8.02;40.53;101016.34;1689770;84;21169;-74
2021/03/12 07:29:29;;;;;;;19.30;5.30;;;;;;;-7.99;40.29;101020.94;1686489;82;21159;-78
2021/03/12 07:32:04;;;;;;;24.57;5.53;;;;;;;-7.93;41.01;101014.33;1684581;85;21135;-77
2021/03/12 07:34:37;;;;;;;17.93;5.50;;;;;;;-7.84;41.23;101026.92;1706342;83;21696;-77
2021/03/12 07:37:07;;;;;;;22.57;5.33;;;;;;;-7.70;40.54;101026.77;1714178;84;21585;-76
2021/03/12 07:39:39;;;;;;;16.50;4.95;;;;;;;-7.63;39.48;101029.34;1682054;84;21098;-76
2021/03/12 07:42:11;;;;;;;16.40;5.73;;;;;;;-7.57;38.57;101039.53;1714624;83;21149;-77
2021/03/12 07:45:02;;;;;;;33.33;6.00;;;;;;;-7.53;38.96;101028.16;1703226;82;21164;-75
2021/03/12 07:47:49;;;;;;;31.77;5.40;;;;;;;-7.45;38.48;101021.32;1708202;84;21168;-78
2021/03/12 07:50:32;;;;;;;16.40;4.57;;;;;;;-7.36;38.42;101015.30;1702226;83;21169;-80
2021/03/12 07:53:02;;;;;;;17.73;5.03;;;;;;;-7.30;37.83;101012.66;1672988;84;21114;-75
2021/03/12 07:55:45;;;;;;;20.43;5.27;;;;;;;-7.18;37.83;101004.59;1684437;83;21553;-82
2021/03/12 07:58:56;;;;;;;14.90;4.60;;;;;;;-7.04;37.84;100987.59;1688885;82;21136;-77
2021/03/12 08:01:29;;;;;;;18.13;4.83;;;;;;;-6.90;37.44;100975.38;1682155;85;21161;-82
2021/03/12 08:03:58;;;;;;;14.00;4.87;;;;;;;-6.84;36.78;100976.72;1628174;85;21251;-74
2021/03/12 08:06:34;;;;;;;26.37;5.43;;;;;;;-6.82;36.18;100970.30;1686339;83;21286;-83
2021/03/12 08:09:32;;;;;;;19.10;5.20;;;;;;;-6.76;36.82;100959.67;1704191;84;21569;-77
2021/03/12 08:12:37;;;;;;;47.50;7.27;;;;;;;-6.69;36.87;100944.90;1679357;84;21137;-76
2021/03/12 08:15:21;;;;;;;17.10;5.72;;;;;;;-6.58;37.93;100943.57;1680843;83;21134;-75
2021/03/12 08:18:04;;;;;;;28.27;6.97;;;;;;;-6.44;37.36;100924.66;1711417;83;21157;-80
2021/03/12 08:20:41;;;;;;;18.47;5.77;;;;;;;-6.35;37.34;100913.28;1686601;84;21251;-89
2021/03/12 08:23:32;;;;;;;18.43;6.47;;;;;;;-6.28;36.74;100909.14;1682317;84;21152;-84
2021/03/12 08:26:01;;;;;;;19.67;6.37;;;;;;;-6.24;36.80;100895.91;1669304;83;21187;-86
2021/03/12 08:28:47;;;;;;;20.47;5.70;;;;;;;-6.21;37.13;100897.00;1695321;84;21620;-79
2021/03/12 08:31:17;;;;;;;21.87;6.03;;;;;;;-6.17;37.01;100891.77;1718679;81;21179;-85
2021/03/12 08:33:47;;;;;;;13.93;4.70;;;;;;;-6.11;36.21;100885.09;1681085;83;21285;-78
2021/03/12 08:36:26;;;;;;;16.97;4.80;;;;;;;-6.01;35.96;100884.69;1713340;83;21178;-81
2021/03/12 08:39:27;;;;;;;15.43;5.50;;;;;;;-5.91;36.40;100867.81;1696822;84;21674;-77
2021/03/12 08:42:08;;;;;;;13.73;4.93;;;;;;;-5.81;36.00;100868.69;1660207;85;21249;-84
2021/03/12 08:44:40;;;;;;;19.17;5.50;;;;;;;-5.71;36.46;100866.09;1706473;83;21165;-77
2021/03/12 08:47:18;;;;;;;30.97;6.03;;;;;;;-5.68;35.28;100867.66;1699593;83;21268;-81
2021/03/12 08:49:48;;;;;;;24.10;5.63;;;;;;;-5.64;35.76;100863.25;1709599;84;21125;-83
2021/03/12 08:52:19;;;;;;;23.47;5.43;;;;;;;-5.57;36.44;100849.78;1722315;81;21143;-86
2021/03/12 08:54:50;;;;;;;20.10;4.93;;;;;;;-5.48;36.64;100840.98;1701643;83;21161;-75
2021/03/12 08:57:21;;;;;;;12.53;4.50;;;;;;;-5.40;36.10;100850.98;1688705;83;21178;-81
2021/03/12 09:00:06;;;;;;;16.97;4.83;;;;;;;-5.39;35.58;100846.84;1693809;82;21671;-78
2021/03/12 09:02:35;;;;;;;19.70;4.97;;;;;;;-5.35;35.20;100846.09;1652145;83;21217;-91
2021/03/12 09:05:27;;;;;;;14.77;4.50;;;;;;;-5.28;35.15;100841.91;1680734;83;21180;-86
2021/03/12 09:08:14;;;;;;;17.45;4.72;;;;;;;-5.23;35.33;100843.21;1706494;83;22023;-80
2021/03/12 09:10:46;;;;;;;23.00;5.33;;;;;;;-5.19;34.95;100841.13;1706529;83;21174;-80
2021/03/12 09:13:22;;;;;;;15.47;5.13;;;;;;;-5.14;34.71;100830.91;1689592;83;21656;-80
2021/03/12 09:15:51;;;;;;;16.87;4.97;;;;;;;-5.07;34.73;100828.53;1714492;83;21144;-80
2021/03/12 09:18:23;;;;;;;19.03;4.67;;;;;;;-4.98;34.42;100819.21;1708251;82;21166;-78
2021/03/12 09:21:00;;;;;;;17.60;4.70;;;;;;;-4.92;35.27;100821.35;1693470;82;21279;-80
2021/03/12 09:23:45;;;;;;;14.03;4.80;;;;;;;-4.85;34.83;100815.81;1722560;82;21160;-76
2021/03/12 09:26:29;;;;;;;22.70;5.67;;;;;;;-4.72;35.30;100805.73;1684345;84;21108;-78
2021/03/12 09:29:06;;;;;;;38.47;6.20;;;;;;;-4.56;35.68;100813.22;1685020;83;21166;-77
2021/03/12 09:31:39;;;;;;;22.40;4.70;;;;;;;-4.45;35.08;100797.05;1669339;83;21157;-80
2021/03/12 09:34:14;;;;;;;16.27;4.73;;;;;;;-4.33;34.99;100805.30;1722285;82;21139;-75
2021/03/12 09:36:51;;;;;;;21.60;5.10;;;;;;;-4.25;34.85;100805.94;1720653;82;21220;-75
2021/03/12 09:39:23;;;;;;;16.33;4.70;;;;;;;-4.13;35.25;100798.97;1698784;83;21208;-78
2021/03/12 09:42:03;;;;;;;19.37;5.10;;;;;;;-3.98;35.36;100799.37;1709373;83;21129;-76
2021/03/12 09:44:34;;;;;;;20.97;5.50;;;;;;;-3.82;34.05;100778.74;1703823;84;21153;-78
2021/03/12 09:47:06;;;;;;;15.20;4.93;;;;;;;-3.74;34.53;100781.55;1708133;83;21149;-79
2021/03/12 09:49:39;;;;;;;15.63;4.73;;;;;;;-3.64;34.03;100780.51;1686852;84;21685;-77
2021/03/12 09:52:16;;;;;;;26.10;5.00;;;;;;;-3.49;33.99;100778.23;1676676;84;21662;-80
2021/03/12 09:54:50;;;;;;;22.50;4.67;;;;;;;-3.33;34.21;100773.94;1700494;83;21198;-80
2021/03/12 09:57:20;;;;;;;11.03;4.43;;;;;;;-3.18;33.67;100768.09;1700355;83;21161;-73
2021/03/12 09:59:50;;;;;;;15.13;4.50;;;;;;;-3.13;34.00;100781.38;1718714;83;21160;-76
2021/03/12 10:02:25;;;;;;;11.43;4.53;;;;;;;-3.08;33.61;100767.54;1687799;83;21108;-78
2021/03/12 10:05:09;;;;;;;14.80;4.80;;;;;;;-3.11;32.86;100772.70;1704753;83;21204;-76
2021/03/12 10:07:46;;;;;;;37.77;6.67;;;;;;;-3.13;33.08;100773.84;1694564;83;21621;-77
2021/03/12 10:10:20;;;;;;;15.67;5.00;;;;;;;-3.11;33.40;100770.55;1705426;83;21165;-73
2021/03/12 10:12:50;;;;;;;20.63;5.23;;;;;;;-3.04;33.15;100768.95;1701342;83;22693;-77
2021/03/12 10:15:23;;;;;;;19.23;5.30;;;;;;;-2.93;33.42;100766.05;1711186;83;21137;-73
2021/03/12 10:17:58;;;;;;;17.02;6.15;;;;;;;-2.82;33.37;100766.70;1699026;83;21614;-73
2021/03/12 10:20:33;;;;;;;23.43;4.80;;;;;;;-2.71;33.06;100764.31;1703158;83;21152;-74
2021/03/12 10:23:10;;;;;;;17.53;5.70;;;;;;;-2.67;32.33;100767.02;1692392;83;21167;-75
2021/03/12 10:25:41;;;;;;;16.97;4.47;;;;;;;-2.67;32.67;100761.18;1719123;83;21160;-83
2021/03/12 10:28:16;;;;;;;17.97;4.53;;;;;;;-2.65;32.82;100745.78;1687294;82;21168;-79
2021/03/12 10:30:51;;;;;;;17.33;4.00;;;;;;;-2.65;32.66;100747.12;1717810;82;21626;-75
2021/03/12 10:33:23;;;;;;;22.97;5.33;;;;;;;-2.59;33.00;100755.06;1709830;82;21558;-76
2021/03/12 10:35:57;;;;;;;23.13;6.63;;;;;;;-2.55;32.54;100753.75;1710218;82;21204;-75
2021/03/12 10:38:34;;;;;;;49.03;7.93;;;;;;;-2.47;33.30;100748.47;1700601;83;21112;-74
2021/03/12 10:41:08;;;;;;;17.93;4.60;;;;;;;-2.42;32.75;100736.80;1732425;82;21159;-74
2021/03/12 10:43:37;;;;;;;44.73;13.73;;;;;;;-2.42;33.49;100731.44;1702256;81;21120;-80
2021/03/12 10:46:08;;;;;;;15.58;4.25;;;;;;;-2.41;33.35;100726.92;1716439;83;21167;-83
2021/03/12 10:48:40;;;;;;;17.30;4.83;;;;;;;-2.38;33.32;100730.64;1709232;83;21203;-84
2021/03/12 10:51:10;;;;;;;14.60;4.80;;;;;;;-2.32;33.49;100740.23;1711950;82;21153;-88
2021/03/12 10:53:53;;;;;;;32.75;5.83;;;;;;;-2.26;33.59;100735.61;1711231;82;21228;-88
2021/03/12 10:56:23;;;;;;;20.53;4.77;;;;;;;-2.22;33.50;100722.23;1690561;84;21695;-87
2021/03/12 10:58:53;;;;;;;24.77;4.90;;;;;;;-2.25;33.34;100721.19;1724752;82;21140;-85
2021/03/12 11:01:28;;;;;;;11.10;4.33;;;;;;;-2.24;34.11;100729.59;1696334;84;21152;-80
2021/03/12 11:04:00;;;;;;;14.20;4.97;;;;;;;-2.21;34.00;100720.39;1706278;83;21283;-79
2021/03/12 11:06:37;;;;;;;11.37;4.40;;;;;;;-2.11;34.29;100714.44;1700926;82;21104;-77
2021/03/12 11:09:09;;;;;;;12.33;4.37;;;;;;;-2.08;34.62;100701.57;1705604;83;21622;-79
2021/03/12 11:11:41;;;;;;;15.87;5.07;;;;;;;-2.05;34.69;100693.19;1706029;82;21151;-77
2021/03/12 11:14:10;;;;;;;16.80;4.80;;;;;;;-2.07;34.34;100683.62;1750944;82;21156;-76
2021/03/12 11:16:38;;;;;;;22.05;5.15;;;;;;;-2.10;35.50;100670.55;1692643;83;21140;-77
2021/03/12 11:19:07;;;;;;;57.53;6.67;;;;;;;-2.08;35.40;100673.91;1712970;83;21157;-76
2021/03/12 11:21:35;;;;;;;9.55;4.50;;;;;;;-2.06;35.05;100660.68;1700111;82;21177;-76
2021/03/12 11:24:04;;;;;;;22.22;5.97;;;;;;;-2.01;35.10;100651.66;1723425;82;21198;-81
2021/03/12 11:26:32;;;;;;;26.27;6.60;;;;;;;-1.97;34.87;100653.02;1724402;82;21173;-83
2021/03/12 11:29:00;;;;;;;15.72;4.97;;;;;;;-1.88;36.10;100640.50;1722529;83;21141;-77
2021/03/12 11:31:29;;;;;;;67.50;9.75;;;;;;;-1.79;35.41;100627.95;1647481;85;21149;-81
2021/03/12 11:33:58;;;;;;;23.03;6.47;;;;;;;-1.78;35.72;100628.31;1685360;85;21232;-81
2021/03/12 11:36:26;;;;;;;22.75;6.40;;;;;;;-1.72;36.12;100626.34;1708029;81;21268;-77
2021/03/12 11:38:54;;;;;;;16.95;4.97;;;;;;;-1.65;35.92;100611.27;1712474;82;21108;-78
2021/03/12 11:41:23;;;;;;;27.00;5.23;;;;;;;-1.64;35.84;100610.25;1735781;82;21587;-77